This is the latest recevied weather packets stored in our database for station/object KE9DBJ-13. If no packets are shown the sender has not sent any weather packets the latest 10 day(s).
| Time | Temp. | Humidity | Pressure | Rain* | Wind** | Luminosity | Snow |
|---|---|---|---|---|---|---|---|
| 1778014202 | 17.22° C | 93% | 1007.6 hPa | 0.25 mm | - | - | - |
| 1778013602 | 17.22° C | 92% | 1007.6 hPa | 1.02 mm | - | - | - |
| 1778013002 | 17.22° C | 92% | 1007.6 hPa | 2.03 mm | - | - | - |
| 1778012403 | 17.78° C | 91% | 1007.7 hPa | 2.54 mm | - | - | - |
| 1778011803 | 17.22° C | 92% | 1007.9 hPa | 2.54 mm | - | - | - |
| 1778011203 | 17.78° C | 91% | 1007.9 hPa | 2.03 mm | - | - | - |
| 1778010603 | 17.78° C | 91% | 1007.9 hPa | 2.03 mm | - | - | - |
| 1778010003 | 17.78° C | 92% | 1008.1 hPa | 1.52 mm | - | - | - |
| 1778009403 | 17.78° C | 91% | 1008.1 hPa | 1.78 mm | - | - | - |
| 1778008803 | 17.78° C | 91% | 1008.1 hPa | 2.29 mm | - | - | - |
| 1778008202 | 17.78° C | 91% | 1008.4 hPa | 4.32 mm | - | - | - |
| 1778007602 | 17.22° C | 91% | 1008.7 hPa | 5.08 mm | - | - | - |
| 1778007002 | 17.78° C | 87% | 1008.6 hPa | 3.56 mm | - | - | - |
| 1778006402 | 18.89° C | 84% | 1008.1 hPa | 1.02 mm | - | - | - |
| 1778005802 | 20° C | 76% | 1008 hPa | 0 mm | - | - | - |
| 1778005202 | 20.56° C | 72% | 1007.9 hPa | 0 mm | - | - | - |
| 1778004602 | 21.11° C | 70% | 1007.9 hPa | 0 mm | - | - | - |
| 1778004002 | 21.11° C | 69% | 1007.9 hPa | 0 mm | - | - | - |
| 1778003402 | 20.56° C | 68% | 1008.1 hPa | 0 mm | - | - | - |
| 1778002803 | 20.56° C | 65% | 1008.1 hPa | 0 mm | - | - | - |
| 1778002203 | 20° C | 66% | 1008.2 hPa | 0 mm | - | - | - |
| 1778001603 | 20° C | 72% | 1008.3 hPa | 0 mm | - | - | - |
| 1778001003 | 20° C | 69% | 1008.3 hPa | 0 mm | - | - | - |
| 1778000403 | 20° C | 71% | 1008.4 hPa | 0 mm | - | - | - |
| 1777999803 | 20° C | 69% | 1008.5 hPa | 0 mm | - | - | - |
* Rain latest hour (hover to see other rain measurements)
** Current wind speed in m/s (hover to see current wind gust speed)